Turbeville, Virginia
Current Conditions -  °F | °C
As of 4:35 AM on Saturday 25 Oct 2014 (Local Time) from KW78 Reporting Station
Clear Clear  
Wind Chill: 40°   Ceiling: Unl
Heat Index: 40°   Visibility: 5mi
Dew Point: 39°   Wind: 0mph
Humidity: 95%   Direction: NA
Pressure: 29.98"   Gusts: NA
Location:  36.7012°N, 79.0269°W
Report Text: KW78 250835Z AUTO 00000KT 5SM CLR 05/04 A2998 RMK AO1 T00450037
Loading
Personal Weather Stations






























Interactive Weather Map
Tropical Storm Tracking
New forecast layout! Learn more

10-Day Weather Forecast

Advertisements
Track Severe Weather on mobile